Time;durP1;ratioP1;P1;durP2;ratioP2;P2;SDS_P1;SDS_P2;PMS_P1;PMS_P2;Temp;Humidity;BMP_temperature;BMP_pressure;BME280_temperature;BME280_humidity;BME280_pressure;Samples;Min_cycle;Max_cycle;Signal;HPM_P1;HPM_P2
2023/10/02 00:00:42;;;;;;;;;;;23.10;93.10;;;;;;5113136;28;19911;-72
2023/10/02 00:03:12;;;;;;;;;;;23.20;93.00;;;;;;5114407;28;19908;-71
2023/10/02 00:05:50;;;;;;;;;;;23.20;93.20;;;;;;5114367;28;19912;-68
2023/10/02 00:08:34;;;;;;;;;;;23.10;92.50;;;;;;5114379;28;19954;-71
2023/10/02 00:12:01;;;;;;;;;;;23.00;92.70;;;;;;5114074;28;20388;-70
2023/10/02 00:17:08;;;;;;;;;;;22.90;93.00;;;;;;5114499;28;20245;-66
2023/10/02 00:19:38;;;;;;;;;;;23.20;92.70;;;;;;5114117;28;19908;-66
2023/10/02 00:22:06;;;;;;;;;;;23.40;92.60;;;;;;5114268;28;19908;-66
2023/10/02 00:24:35;;;;;;;;;;;23.70;92.40;;;;;;5114231;28;19907;-71
2023/10/02 00:27:03;;;;;;;;;;;23.50;92.50;;;;;;5113773;28;20416;-71
2023/10/02 00:29:30;;;;;;;;;;;23.70;92.40;;;;;;5113802;28;19915;-72
2023/10/02 00:31:57;;;;;;;;;;;23.90;91.90;;;;;;5113981;28;19925;-70
2023/10/02 00:34:33;;;;;;;;;;;24.10;91.60;;;;;;5113871;28;20275;-69
2023/10/02 00:37:01;;;;;;;;;;;24.30;91.10;;;;;;5113900;28;20330;-69
2023/10/02 00:39:31;;;;;;;;;;;24.30;90.80;;;;;;5113467;28;19914;-70
2023/10/02 00:45:03;;;;;;;;;;;24.30;90.60;;;;;;5100912;28;19907;-69
2023/10/02 00:47:42;;;;;;;;;;;24.10;91.00;;;;;;5113252;28;19908;-74
2023/10/02 00:50:11;;;;;;;;;;;24.10;90.90;;;;;;5113537;28;19920;-71
2023/10/02 00:52:42;;;;;;;;;;;24.00;90.80;;;;;;5112699;28;19914;-69
2023/10/02 00:55:12;;;;;;;;;;;24.00;91.10;;;;;;5113479;28;19998;-71
2023/10/02 00:57:41;;;;;;;;;;;24.30;91.10;;;;;;5113574;28;19914;-70
2023/10/02 01:00:18;;;;;;;;;;;24.60;90.40;;;;;;5113500;28;19909;-70
2023/10/02 01:02:50;;;;;;;;;;;24.40;90.30;;;;;;5113121;28;19907;-70
2023/10/02 01:05:21;;;;;;;;;;;24.60;90.60;;;;;;5113479;28;19942;-71
2023/10/02 01:07:53;;;;;;;;;;;24.90;89.60;;;;;;5113477;28;19908;-73
2023/10/02 01:10:20;;;;;;;;;;;25.00;89.80;;;;;;5113039;28;19923;-72
2023/10/02 01:12:50;;;;;;;;;;;25.10;90.60;;;;;;5113310;28;19914;-68
2023/10/02 01:15:20;;;;;;;;;;;25.30;89.90;;;;;;5113492;28;20368;-73
2023/10/02 01:17:48;;;;;;;;;;;25.40;89.30;;;;;;5113062;28;19915;-70
2023/10/02 01:20:23;;;;;;;;;;;25.50;90.40;;;;;;5113154;28;19912;-68
2023/10/02 01:22:52;;;;;;;;;;;25.60;88.40;;;;;;5113142;28;19908;-69
2023/10/02 01:25:23;;;;;;;;;;;25.20;86.40;;;;;;5113339;28;19961;-70
2023/10/02 01:27:51;;;;;;;;;;;25.30;87.10;;;;;;5113213;28;19908;-69
2023/10/02 01:30:21;;;;;;;;;;;25.40;87.80;;;;;;5112788;28;20304;-68
2023/10/02 01:35:38;;;;;;;;;;;25.70;87.40;;;;;;5113177;28;19915;-72
2023/10/02 01:38:18;;;;;;;;;;;25.90;87.10;;;;;;5113094;28;20033;-70
2023/10/02 01:40:48;;;;;;;;;;;25.80;85.80;;;;;;5113180;28;19911;-71
2023/10/02 01:43:15;;;;;;;;;;;25.80;86.30;;;;;;5112988;28;19918;-70
2023/10/02 01:45:43;;;;;;;;;;;25.90;86.70;;;;;;5112986;28;19908;-70
2023/10/02 01:48:14;;;;;;;;;;;26.00;86.60;;;;;;5111686;28;19919;-69
2023/10/02 01:50:45;;;;;;;;;;;26.20;85.60;;;;;;5112985;28;20248;-69
2023/10/02 01:53:30;;;;;;;;;;;26.40;86.90;;;;;;5112848;28;19940;-71
2023/10/02 01:56:00;;;;;;;;;;;26.60;85.70;;;;;;5111301;28;20280;-70
2023/10/02 01:58:27;;;;;;;;;;;26.70;85.00;;;;;;5112796;28;19908;-70
2023/10/02 02:00:54;;;;;;;;;;;26.60;84.40;;;;;;5112888;28;19998;-73
2023/10/02 02:03:22;;;;;;;;;;;26.60;86.20;;;;;;5113058;28;19939;-73
2023/10/02 02:05:49;;;;;;;;;;;26.80;84.00;;;;;;5116718;28;19914;-72
2023/10/02 02:08:22;;;;;;;;;;;26.60;84.60;;;;;;5116573;28;20344;-72
2023/10/02 02:10:53;;;;;;;;;;;26.80;84.00;;;;;;5116555;28;19915;-69
2023/10/02 02:13:21;;;;;;;;;;;27.00;83.80;;;;;;5116726;28;19999;-71
2023/10/02 02:15:51;;;;;;;;;;;27.20;83.60;;;;;;5116392;28;19920;-70
2023/10/02 02:18:21;;;;;;;;;;;27.40;83.70;;;;;;5116329;28;19918;-72
2023/10/02 02:20:58;;;;;;;;;;;27.50;83.70;;;;;;5116358;28;19934;-68
2023/10/02 02:23:30;;;;;;;;;;;27.50;81.80;;;;;;5116631;28;19998;-69
2023/10/02 02:25:56;;;;;;;;;;;27.10;84.30;;;;;;5116395;28;19907;-69
2023/10/02 02:28:23;;;;;;;;;;;27.50;83.20;;;;;;5116299;28;20307;-69
2023/10/02 02:30:50;;;;;;;;;;;27.70;84.50;;;;;;5116099;28;19919;-70
2023/10/02 02:33:16;;;;;;;;;;;28.20;84.10;;;;;;5116227;28;19907;-67
2023/10/02 02:35:44;;;;;;;;;;;28.70;82.10;;;;;;5116183;27;19907;-71
2023/10/02 02:38:16;;;;;;;;;;;28.90;79.50;;;;;;5116249;28;19908;-69
2023/10/02 02:40:43;;;;;;;;;;;28.60;78.70;;;;;;5115889;28;19907;-72
2023/10/02 02:43:46;;;;;;;;;;;29.20;80.50;;;;;;5115885;28;19912;-72
2023/10/02 02:46:04;;;;;;;;;;;30.20;78.00;;;;;;5114707;28;19908;-66
2023/10/02 02:48:43;;;;;;;;;;;31.10;75.60;;;;;;5115720;28;19919;-68
2023/10/02 02:51:21;;;;;;;;;;;31.80;72.50;;;;;;5115603;28;20367;-68
2023/10/02 02:53:51;;;;;;;;;;;32.10;70.90;;;;;;5115802;28;19912;-69
2023/10/02 02:58:45;;;;;;;;;;;32.80;71.00;;;;;;5115793;28;19911;-68
2023/10/02 03:01:24;;;;;;;;;;;33.40;68.50;;;;;;5115475;28;19908;-68
2023/10/02 03:03:51;;;;;;;;;;;34.60;68.00;;;;;;5115393;28;19915;-69
2023/10/02 03:06:22;;;;;;;;;;;35.10;65.80;;;;;;5114450;28;20317;-72
2023/10/02 03:08:51;;;;;;;;;;;34.40;64.70;;;;;;5115441;28;19915;-70
2023/10/02 03:11:22;;;;;;;;;;;34.00;66.40;;;;;;5115362;28;20297;-69
2023/10/02 03:13:49;;;;;;;;;;;34.60;64.20;;;;;;5115596;28;19908;-69
2023/10/02 03:16:28;;;;;;;;;;;35.00;64.80;;;;;;5114346;28;20076;-69
2023/10/02 03:18:55;;;;;;;;;;;35.10;62.50;;;;;;5115329;28;19908;-68
2023/10/02 03:21:22;;;;;;;;;;;35.50;64.00;;;;;;5115386;28;19958;-70
2023/10/02 03:23:50;;;;;;;;;;;35.70;62.30;;;;;;5115312;28;19960;-70
2023/10/02 03:29:04;;;;;;;;;;;35.20;62.60;;;;;;5115372;28;19907;-71
2023/10/02 03:31:36;;;;;;;;;;;35.40;61.10;;;;;;5115018;28;20010;-71
2023/10/02 03:34:27;;;;;;;;;;;36.40;62.20;;;;;;5114925;28;19908;-70
2023/10/02 03:36:51;;;;;;;;;;;35.70;60.60;;;;;;5114946;28;19953;-66
2023/10/02 03:39:24;;;;;;;;;;;33.90;62.40;;;;;;5114699;28;19911;-67
2023/10/02 03:41:55;;;;;;;;;;;33.60;64.20;;;;;;5113615;28;19977;-70
2023/10/02 03:44:26;;;;;;;;;;;35.20;63.80;;;;;;5115371;28;20309;-70
2023/10/02 03:46:54;;;;;;;;;;;36.30;60.60;;;;;;5114763;28;19911;-70
2023/10/02 03:49:23;;;;;;;;;;;37.20;60.40;;;;;;5114595;28;20010;-69
2023/10/02 03:51:50;;;;;;;;;;;37.40;59.10;;;;;;5114543;28;20003;-69
2023/10/02 03:54:23;;;;;;;;;;;37.80;58.80;;;;;;5114740;28;20056;-70
2023/10/02 03:56:50;;;;;;;;;;;37.40;59.30;;;;;;5114683;28;20280;-69
2023/10/02 03:59:20;;;;;;;;;;;37.50;58.80;;;;;;5114414;28;19914;-71
2023/10/02 04:01:48;;;;;;;;;;;36.40;58.60;;;;;;5114352;28;19917;-68
2023/10/02 04:06:44;;;;;;;;;;;35.60;60.70;;;;;;5114264;28;19934;-71
2023/10/02 04:11:45;;;;;;;;;;;35.60;60.80;;;;;;5114281;28;20445;-71
2023/10/02 04:14:18;;;;;;;;;;;36.10;60.10;;;;;;5114109;28;19907;-69
2023/10/02 04:16:46;;;;;;;;;;;36.50;60.80;;;;;;5114082;28;19919;-70
2023/10/02 04:19:15;;;;;;;;;;;37.50;59.20;;;;;;5114025;28;19957;-71
2023/10/02 04:21:45;;;;;;;;;;;36.70;58.60;;;;;;5113760;28;19931;-70
2023/10/02 04:24:12;;;;;;;;;;;36.10;60.10;;;;;;5113832;28;20276;-69
2023/10/02 04:26:41;;;;;;;;;;;36.40;60.50;;;;;;5112540;28;19915;-69
2023/10/02 04:30:05;;;;;;;;;;;37.50;59.50;;;;;;5113807;28;19911;-70
2023/10/02 04:32:18;;;;;;;;;;;37.90;57.40;;;;;;5112613;28;19908;-69
2023/10/02 04:34:56;;;;;;;;;;;37.20;59.20;;;;;;5113723;28;20386;-70
2023/10/02 04:37:23;;;;;;;;;;;36.60;59.30;;;;;;5113928;28;20011;-67
2023/10/02 04:42:25;;;;;;;;;;;35.40;61.00;;;;;;5113817;28;19915;-72
2023/10/02 04:45:16;;;;;;;;;;;36.30;60.10;;;;;;5113598;28;20283;-70
2023/10/02 04:47:44;;;;;;;;;;;35.40;61.20;;;;;;5113601;28;19914;-70
2023/10/02 04:55:28;;;;;;;;;;;36.10;60.20;;;;;;5113907;28;20367;-70
2023/10/02 04:57:56;;;;;;;;;;;36.00;58.90;;;;;;5113615;28;19908;-71
2023/10/02 05:00:32;;;;;;;;;;;36.80;59.90;;;;;;5113318;28;19908;-69
2023/10/02 05:03:26;;;;;;;;;;;36.20;59.10;;;;;;5113118;27;19915;-68
2023/10/02 05:05:53;;;;;;;;;;;35.40;60.20;;;;;;5113360;28;20034;-66
2023/10/02 05:08:21;;;;;;;;;;;36.10;60.60;;;;;;5113377;28;20320;-69
2023/10/02 05:11:05;;;;;;;;;;;36.00;59.80;;;;;;5113054;28;19920;-72
2023/10/02 05:16:26;;;;;;;;;;;34.00;61.40;;;;;;5113793;28;19942;-69
2023/10/02 05:18:54;;;;;;;;;;;32.80;64.20;;;;;;5113358;28;19912;-69
2023/10/02 05:21:35;;;;;;;;;;;32.90;63.90;;;;;;5113098;28;19960;-67
2023/10/02 05:24:12;;;;;;;;;;;34.00;62.90;;;;;;5113326;28;19907;-67
2023/10/02 05:26:41;;;;;;;;;;;33.50;62.00;;;;;;5113177;28;19943;-69
2023/10/02 05:29:36;;;;;;;;;;;33.80;62.10;;;;;;5113036;28;19919;-67
2023/10/02 05:32:19;;;;;;;;;;;33.40;63.10;;;;;;5113235;28;19960;-69
2023/10/02 05:35:06;;;;;;;;;;;32.90;62.60;;;;;;5113087;28;19907;-67
2023/10/02 05:37:34;;;;;;;;;;;32.20;64.10;;;;;;5113072;28;19912;-67
2023/10/02 05:43:31;;;;;;;;;;;32.20;64.90;;;;;;5117461;28;20360;-68
2023/10/02 05:48:15;;;;;;;;;;;33.60;62.70;;;;;;5116709;28;19926;-69
2023/10/02 05:50:48;;;;;;;;;;;32.10;64.90;;;;;;5116902;27;20280;-72
2023/10/02 05:53:15;;;;;;;;;;;32.40;65.30;;;;;;5117002;28;20410;-71
2023/10/02 05:56:04;;;;;;;;;;;32.50;65.30;;;;;;5117040;28;19961;-71
2023/10/02 05:58:38;;;;;;;;;;;33.10;65.50;;;;;;5117182;28;19994;-72
2023/10/02 06:01:06;;;;;;;;;;;33.10;64.30;;;;;;5116624;28;19908;-71
2023/10/02 06:03:37;;;;;;;;;;;32.70;65.80;;;;;;5116705;28;19908;-70
2023/10/02 06:06:18;;;;;;;;;;;32.70;65.10;;;;;;5116571;28;19908;-69
2023/10/02 06:09:00;;;;;;;;;;;32.70;65.00;;;;;;5116621;28;19908;-71
2023/10/02 06:11:31;;;;;;;;;;;31.80;67.40;;;;;;5116524;28;19958;-71
2023/10/02 06:14:12;;;;;;;;;;;32.50;66.10;;;;;;5116469;28;19912;-68
2023/10/02 06:16:40;;;;;;;;;;;31.90;66.50;;;;;;5116644;27;20337;-67
2023/10/02 06:19:13;;;;;;;;;;;32.00;67.80;;;;;;5116764;27;19907;-69
2023/10/02 06:22:04;;;;;;;;;;;31.70;66.70;;;;;;5116160;28;20420;-67
2023/10/02 06:24:30;;;;;;;;;;;31.70;66.00;;;;;;5115983;28;19930;-67
2023/10/02 06:26:57;;;;;;;;;;;30.60;67.50;;;;;;5114870;27;19908;-68
2023/10/02 06:29:32;;;;;;;;;;;30.20;69.30;;;;;;5116355;28;20359;-71
2023/10/02 06:31:59;;;;;;;;;;;29.80;70.00;;;;;;5116140;28;19934;-69
2023/10/02 06:34:37;;;;;;;;;;;30.30;70.20;;;;;;5116308;28;19911;-71
2023/10/02 06:37:13;;;;;;;;;;;30.70;68.00;;;;;;5116031;27;20359;-74
2023/10/02 06:39:41;;;;;;;;;;;29.80;71.40;;;;;;5116074;28;19908;-69
2023/10/02 06:42:08;;;;;;;;;;;29.70;70.70;;;;;;5116092;28;20003;-67
2023/10/02 06:45:15;;;;;;;;;;;30.20;70.60;;;;;;5115851;28;20387;-70
2023/10/02 06:47:29;;;;;;;;;;;30.80;69.60;;;;;;5114425;28;19912;-69
2023/10/02 06:50:58;;;;;;;;;;;31.60;68.30;;;;;;5114616;28;19924;-66
2023/10/02 06:52:53;;;;;;;;;;;31.00;67.60;;;;;;5110669;28;19907;-70
2023/10/02 06:55:24;;;;;;;;;;;29.50;70.20;;;;;;5115791;28;19907;-68
2023/10/02 06:57:56;;;;;;;;;;;28.40;73.10;;;;;;5115585;28;19915;-70
2023/10/02 07:00:35;;;;;;;;;;;27.80;74.60;;;;;;5115530;28;19908;-71
2023/10/02 07:03:03;;;;;;;;;;;27.60;75.00;;;;;;5115600;28;19908;-71
2023/10/02 07:05:32;;;;;;;;;;;26.90;77.10;;;;;;5115554;28;20378;-70
2023/10/02 07:08:01;;;;;;;;;;;26.50;77.70;;;;;;5115584;28;19908;-69
2023/10/02 07:10:41;;;;;;;;;;;25.70;80.80;;;;;;5115346;28;19955;-71
2023/10/02 07:13:20;;;;;;;;;;;25.00;82.00;;;;;;5115570;28;20341;-69
2023/10/02 07:15:47;;;;;;;;;;;24.40;85.40;;;;;;5114152;28;19911;-69
2023/10/02 07:18:14;;;;;;;;;;;23.90;86.80;;;;;;5115311;28;19914;-71
2023/10/02 07:20:49;;;;;;;;;;;23.70;88.90;;;;;;5115095;28;19957;-70
2023/10/02 07:23:22;;;;;;;;;;;23.70;89.50;;;;;;5115321;28;19908;-69
2023/10/02 07:25:52;;;;;;;;;;;23.40;90.30;;;;;;5115393;28;19908;-71
2023/10/02 07:28:22;;;;;;;;;;;22.90;91.50;;;;;;5115005;28;20362;-70
2023/10/02 07:30:52;;;;;;;;;;;22.70;92.70;;;;;;5114877;28;19922;-71
2023/10/02 07:33:20;;;;;;;;;;;22.40;93.80;;;;;;5114730;28;19907;-69
2023/10/02 07:35:57;;;;;;;;;;;22.40;94.70;;;;;;5114976;28;19912;-70
2023/10/02 07:38:33;;;;;;;;;;;22.20;95.70;;;;;;5115083;28;20283;-68
2023/10/02 07:41:23;;;;;;;;;;;21.90;97.20;;;;;;5114803;28;19912;-70
2023/10/02 07:43:53;;;;;;;;;;;21.90;98.30;;;;;;5114563;27;20364;-69
2023/10/02 07:46:23;;;;;;;;;;;21.70;99.50;;;;;;5114300;28;19908;-70
2023/10/02 07:49:00;;;;;;;;;;;21.60;99.90;;;;;;5112802;28;20360;-69
2023/10/02 07:51:32;;;;;;;;;;;21.50;99.90;;;;;;5114021;28;19915;-67
2023/10/02 07:54:00;;;;;;;;;;;21.40;99.90;;;;;;5114509;28;19994;-67
2023/10/02 07:56:29;;;;;;;;;;;21.30;99.90;;;;;;5114557;28;20258;-68
2023/10/02 07:58:56;;;;;;;;;;;21.30;99.90;;;;;;5114630;28;19915;-70
2023/10/02 08:01:27;;;;;;;;;;;21.10;99.90;;;;;;5113873;28;19960;-68
2023/10/02 08:03:58;;;;;;;;;;;21.10;99.90;;;;;;5114447;28;19915;-67
2023/10/02 08:06:36;;;;;;;;;;;21.00;99.90;;;;;;5114540;28;19914;-69
2023/10/02 08:11:52;;;;;;;;;;;20.80;99.90;;;;;;5114586;28;19938;-67
2023/10/02 08:17:27;;;;;;;;;;;20.70;99.90;;;;;;5114438;28;20379;-67
2023/10/02 08:19:55;;;;;;;;;;;20.70;99.90;;;;;;5114127;27;20338;-66
2023/10/02 08:22:23;;;;;;;;;;;20.70;99.90;;;;;;5114113;28;19908;-67
2023/10/02 08:24:50;;;;;;;;;;;20.70;99.90;;;;;;5114214;28;19941;-71
2023/10/02 08:27:17;;;;;;;;;;;20.60;99.90;;;;;;5114007;28;19934;-69
2023/10/02 08:29:44;;;;;;;;;;;20.50;99.90;;;;;;5113841;28;19961;-71
2023/10/02 08:32:28;;;;;;;;;;;20.60;99.90;;;;;;5114040;28;19908;-68
2023/10/02 08:34:55;;;;;;;;;;;20.60;99.90;;;;;;5113724;27;19962;-73
2023/10/02 08:37:23;;;;;;;;;;;20.70;99.90;;;;;;5113656;28;20425;-73
2023/10/02 08:39:51;;;;;;;;;;;20.80;99.90;;;;;;5113756;28;20344;-71
2023/10/02 08:42:24;;;;;;;;;;;20.70;99.90;;;;;;5113673;28;20257;-72
2023/10/02 08:44:54;;;;;;;;;;;20.70;99.90;;;;;;5113739;28;19915;-69
2023/10/02 08:47:24;;;;;;;;;;;20.70;99.90;;;;;;5113822;28;19915;-68
2023/10/02 08:50:04;;;;;;;;;;;20.60;99.90;;;;;;5111962;28;19919;-69
2023/10/02 08:52:42;;;;;;;;;;;20.60;99.90;;;;;;5113559;28;20335;-72
2023/10/02 08:55:33;;;;;;;;;;;20.60;99.90;;;;;;5112855;28;20259;-69
2023/10/02 08:58:22;;;;;;;;;;;20.70;99.90;;;;;;5113392;28;19994;-72
2023/10/02 09:03:42;;;;;;;;;;;20.70;99.90;;;;;;5108391;28;20026;-69
2023/10/02 09:11:41;;;;;;;;;;;20.70;99.90;;;;;;5100016;28;20033;-72
2023/10/02 09:14:23;;;;;;;;;;;20.70;99.90;;;;;;5099724;28;20292;-71
2023/10/02 09:20:08;;;;;;;;;;;20.60;99.90;;;;;;5085560;28;19912;-69
2023/10/02 09:22:41;;;;;;;;;;;20.60;99.90;;;;;;5073943;28;19918;-71
2023/10/02 09:25:37;;;;;;;;;;;20.50;99.90;;;;;;5090907;28;19908;-67
2023/10/02 09:28:13;;;;;;;;;;;20.60;99.90;;;;;;5097235;28;19912;-73
2023/10/02 09:30:41;;;;;;;;;;;20.50;99.90;;;;;;5081335;28;20448;-71
2023/10/02 09:33:10;;;;;;;;;;;20.40;99.90;;;;;;5104102;28;19908;-71
2023/10/02 09:35:43;;;;;;;;;;;20.40;99.90;;;;;;5096841;28;19911;-71
2023/10/02 09:38:16;;;;;;;;;;;20.40;99.90;;;;;;5112989;28;19915;-73
2023/10/02 09:43:32;;;;;;;;;;;20.40;99.90;;;;;;5112651;28;19961;-70
2023/10/02 09:46:20;;;;;;;;;;;20.40;99.90;;;;;;5112785;28;19995;-71
2023/10/02 09:48:56;;;;;;;;;;;20.40;99.90;;;;;;5112710;28;19965;-70
2023/10/02 09:51:22;;;;;;;;;;;20.40;99.90;;;;;;5112596;28;19920;-72
2023/10/02 09:54:08;;;;;;;;;;;20.40;99.90;;;;;;5112842;28;19918;-71
2023/10/02 09:56:41;;;;;;;;;;;20.40;99.90;;;;;;5112682;28;20329;-72
2023/10/02 09:59:17;;;;;;;;;;;20.40;99.90;;;;;;5112347;28;19915;-73
2023/10/02 10:02:07;;;;;;;;;;;20.50;99.90;;;;;;5112591;28;19908;-72
2023/10/02 10:05:00;;;;;;;;;;;20.50;99.90;;;;;;5112336;28;19908;-71
2023/10/02 10:07:58;;;;;;;;;;;20.50;99.90;;;;;;5111301;28;19908;-70
2023/10/02 10:10:48;;;;;;;;;;;20.50;99.90;;;;;;5112369;28;19968;-70
2023/10/02 10:13:25;;;;;;;;;;;20.50;99.90;;;;;;5112833;28;19960;-67
2023/10/02 10:16:10;;;;;;;;;;;20.50;99.90;;;;;;5112902;28;19938;-68
2023/10/02 10:19:41;;;;;;;;;;;20.40;99.90;;;;;;5112762;28;19908;-71
2023/10/02 10:24:56;;;;;;;;;;;20.40;99.90;;;;;;5091093;28;20338;-67
2023/10/02 10:27:53;;;;;;;;;;;20.40;99.90;;;;;;5113556;28;20012;-67
2023/10/02 10:30:31;;;;;;;;;;;20.40;99.90;;;;;;5115874;28;20388;-69
2023/10/02 10:35:38;;;;;;;;;;;20.40;99.90;;;;;;5116122;28;19969;-71
2023/10/02 10:38:26;;;;;;;;;;;20.30;99.90;;;;;;5115960;28;19965;-69
2023/10/02 10:40:59;;;;;;;;;;;20.40;99.90;;;;;;5115849;28;19908;-69
2023/10/02 10:43:44;;;;;;;;;;;20.40;99.90;;;;;;5115846;28;20664;-72
2023/10/02 10:46:16;;;;;;;;;;;20.50;99.90;;;;;;5116452;28;20001;-70
2023/10/02 10:48:53;;;;;;;;;;;20.50;99.90;;;;;;5115658;28;19946;-72
2023/10/02 10:51:22;;;;;;;;;;;20.60;99.90;;;;;;5115582;28;19923;-69
2023/10/02 10:53:52;;;;;;;;;;;20.70;99.90;;;;;;5116088;28;19926;-72
2023/10/02 10:56:19;;;;;;;;;;;20.70;99.90;;;;;;5115740;28;19912;-72
2023/10/02 10:58:47;;;;;;;;;;;20.60;99.90;;;;;;5115525;28;19915;-71
2023/10/02 11:01:20;;;;;;;;;;;20.60;99.90;;;;;;5115411;28;19911;-69
2023/10/02 11:03:58;;;;;;;;;;;20.60;99.90;;;;;;5115676;28;19908;-68
2023/10/02 11:06:25;;;;;;;;;;;20.60;99.90;;;;;;5115420;28;19907;-70
2023/10/02 11:09:13;;;;;;;;;;;20.70;99.90;;;;;;5115262;28;20332;-69
2023/10/02 11:11:49;;;;;;;;;;;20.70;99.90;;;;;;5115146;28;19930;-68
2023/10/02 11:14:22;;;;;;;;;;;20.60;99.90;;;;;;5115420;28;20360;-70
2023/10/02 11:16:52;;;;;;;;;;;20.60;99.90;;;;;;5115339;27;19912;-72
2023/10/02 11:22:14;;;;;;;;;;;20.70;99.90;;;;;;5115264;28;20438;-72
2023/10/02 11:24:55;;;;;;;;;;;20.70;99.90;;;;;;5115352;28;20371;-68
2023/10/02 11:27:23;;;;;;;;;;;20.70;99.90;;;;;;5115299;28;19908;-73
2023/10/02 11:30:02;;;;;;;;;;;20.70;99.90;;;;;;5114900;28;19990;-70
2023/10/02 11:32:59;;;;;;;;;;;20.70;99.90;;;;;;5114943;28;19919;-69
2023/10/02 11:35:28;;;;;;;;;;;20.60;99.90;;;;;;5114696;28;20447;-71
2023/10/02 11:37:56;;;;;;;;;;;20.70;99.90;;;;;;5114082;28;19908;-71
2023/10/02 11:40:28;;;;;;;;;;;20.60;99.90;;;;;;5114653;28;19943;-69
2023/10/02 11:42:59;;;;;;;;;;;20.60;99.90;;;;;;5114973;28;19960;-71
2023/10/02 11:45:29;;;;;;;;;;;20.60;99.90;;;;;;5115132;28;19908;-68
2023/10/02 11:47:56;;;;;;;;;;;20.60;99.90;;;;;;5114317;28;19915;-67
2023/10/02 11:50:23;;;;;;;;;;;20.60;99.90;;;;;;5114483;28;19978;-71
2023/10/02 11:52:50;;;;;;;;;;;20.50;99.90;;;;;;5114301;28;20422;-68
2023/10/02 11:55:18;;;;;;;;;;;20.60;99.90;;;;;;5114333;28;19904;-72
2023/10/02 11:57:47;;;;;;;;;;;20.50;99.90;;;;;;5114608;28;19908;-70
2023/10/02 12:00:14;;;;;;;;;;;20.50;99.90;;;;;;5114524;28;19908;-70
2023/10/02 12:02:45;;;;;;;;;;;20.60;99.90;;;;;;5114468;28;19908;-69
2023/10/02 12:05:11;;;;;;;;;;;20.50;99.90;;;;;;5114375;28;19914;-68
2023/10/02 12:07:39;;;;;;;;;;;20.50;99.90;;;;;;5113955;28;19908;-69
2023/10/02 12:10:06;;;;;;;;;;;20.50;99.90;;;;;;5113666;28;19969;-69
2023/10/02 12:12:32;;;;;;;;;;;20.50;99.90;;;;;;5114180;28;20291;-71
2023/10/02 12:14:59;;;;;;;;;;;20.50;99.90;;;;;;5114136;28;19912;-71
2023/10/02 12:17:25;;;;;;;;;;;20.50;99.90;;;;;;5113909;28;20006;-71
2023/10/02 12:19:52;;;;;;;;;;;20.50;99.90;;;;;;5113742;28;20483;-73
2023/10/02 12:22:19;;;;;;;;;;;20.60;99.90;;;;;;5113889;28;20025;-71
2023/10/02 12:24:46;;;;;;;;;;;20.60;99.90;;;;;;5113970;28;20360;-70
2023/10/02 12:27:15;;;;;;;;;;;20.50;99.90;;;;;;5113929;28;20013;-71
2023/10/02 12:29:42;;;;;;;;;;;20.60;99.90;;;;;;5113737;28;20006;-69
2023/10/02 12:32:09;;;;;;;;;;;20.60;99.90;;;;;;5113777;28;19919;-68
2023/10/02 12:34:36;;;;;;;;;;;20.60;99.90;;;;;;5113680;28;19907;-71
2023/10/02 12:37:04;;;;;;;;;;;20.60;99.90;;;;;;5113909;28;19915;-70
2023/10/02 12:39:30;;;;;;;;;;;20.60;99.90;;;;;;5113883;28;20357;-70
2023/10/02 12:41:57;;;;;;;;;;;20.50;99.90;;;;;;5113955;28;19907;-71
2023/10/02 12:44:23;;;;;;;;;;;20.50;99.90;;;;;;5113565;28;20006;-69
2023/10/02 12:46:50;;;;;;;;;;;20.40;99.90;;;;;;5113478;28;20374;-71
2023/10/02 12:49:21;;;;;;;;;;;20.50;99.90;;;;;;5113263;28;19926;-72
2023/10/02 12:51:52;;;;;;;;;;;20.40;99.90;;;;;;5113833;28;19912;-72
2023/10/02 12:54:19;;;;;;;;;;;20.40;99.90;;;;;;5113661;28;20368;-67
2023/10/02 12:56:46;;;;;;;;;;;20.40;99.90;;;;;;5113656;28;19948;-68
2023/10/02 12:59:13;;;;;;;;;;;20.20;99.90;;;;;;5113480;28;19908;-69
2023/10/02 13:01:39;;;;;;;;;;;20.20;99.90;;;;;;5113425;28;19947;-73
2023/10/02 13:04:06;;;;;;;;;;;20.00;99.90;;;;;;5113388;28;19908;-71
2023/10/02 13:06:33;;;;;;;;;;;20.00;99.90;;;;;;5113448;27;19915;-68
2023/10/02 13:11:39;;;;;;;;;;;20.00;99.90;;;;;;5112980;28;19923;-69
2023/10/02 13:14:07;;;;;;;;;;;20.10;99.90;;;;;;5112808;28;19915;-71
2023/10/02 13:16:37;;;;;;;;;;;20.20;99.90;;;;;;5113583;28;19915;-72
2023/10/02 13:19:09;;;;;;;;;;;20.20;99.90;;;;;;5113450;28;19908;-70
2023/10/02 13:21:42;;;;;;;;;;;20.20;99.90;;;;;;5113122;28;19908;-68
2023/10/02 13:24:17;;;;;;;;;;;20.20;99.90;;;;;;5113310;28;19918;-70
2023/10/02 13:26:44;;;;;;;;;;;20.20;99.90;;;;;;5113008;28;20365;-70
2023/10/02 13:29:10;;;;;;;;;;;20.20;99.90;;;;;;5113273;28;19914;-68
2023/10/02 13:31:37;;;;;;;;;;;20.20;99.90;;;;;;5113013;28;19938;-68
2023/10/02 13:34:06;;;;;;;;;;;20.20;99.90;;;;;;5112977;28;19908;-71
2023/10/02 13:36:33;;;;;;;;;;;20.20;99.90;;;;;;5113023;28;20361;-71
2023/10/02 13:39:00;;;;;;;;;;;20.20;99.90;;;;;;5113174;28;20283;-71
2023/10/02 13:41:27;;;;;;;;;;;20.20;99.90;;;;;;5113028;28;19908;-72
2023/10/02 13:43:55;;;;;;;;;;;20.10;99.90;;;;;;5113059;28;20041;-70
2023/10/02 13:46:22;;;;;;;;;;;20.20;99.90;;;;;;5112885;28;20433;-70
2023/10/02 13:48:52;;;;;;;;;;;20.20;99.90;;;;;;5113102;28;19920;-69
2023/10/02 13:51:19;;;;;;;;;;;20.20;99.90;;;;;;5111447;28;19920;-70
2023/10/02 13:53:56;;;;;;;;;;;20.10;99.90;;;;;;5112828;28;19912;-71
2023/10/02 13:56:25;;;;;;;;;;;20.20;99.90;;;;;;5112986;28;19908;-71
2023/10/02 13:58:53;;;;;;;;;;;20.20;99.90;;;;;;5111628;28;20291;-69
2023/10/02 14:01:21;;;;;;;;;;;20.20;99.90;;;;;;5116226;28;20284;-69
2023/10/02 14:03:51;;;;;;;;;;;20.10;99.90;;;;;;5117054;28;19929;-71
2023/10/02 14:06:20;;;;;;;;;;;20.20;99.90;;;;;;5116749;28;19947;-71
2023/10/02 14:08:46;;;;;;;;;;;20.20;99.90;;;;;;5116839;27;19908;-72
2023/10/02 14:11:17;;;;;;;;;;;20.10;99.90;;;;;;5116282;28;19916;-71
2023/10/02 14:13:48;;;;;;;;;;;20.10;99.90;;;;;;5116546;28;19915;-70
2023/10/02 14:16:15;;;;;;;;;;;20.20;99.90;;;;;;5116827;28;19998;-72
2023/10/02 14:18:43;;;;;;;;;;;20.20;99.90;;;;;;5116427;28;19908;-70
2023/10/02 14:21:10;;;;;;;;;;;20.10;99.90;;;;;;5116530;28;19943;-69
2023/10/02 14:23:37;;;;;;;;;;;20.20;99.90;;;;;;5116470;28;20002;-70
2023/10/02 14:26:09;;;;;;;;;;;20.10;99.90;;;;;;5116637;28;19908;-71
2023/10/02 14:28:36;;;;;;;;;;;20.10;99.90;;;;;;5116532;28;19908;-69
2023/10/02 14:31:02;;;;;;;;;;;20.00;99.90;;;;;;5116210;28;20285;-69
2023/10/02 14:33:29;;;;;;;;;;;20.00;99.90;;;;;;5116435;28;19915;-71
2023/10/02 14:35:57;;;;;;;;;;;20.00;99.90;;;;;;5116138;28;19933;-69
2023/10/02 14:38:24;;;;;;;;;;;20.00;99.90;;;;;;5116027;28;19908;-67
2023/10/02 14:40:56;;;;;;;;;;;20.00;99.90;;;;;;5115981;28;20361;-69
2023/10/02 14:43:22;;;;;;;;;;;20.00;99.90;;;;;;5116222;28;19930;-71
2023/10/02 14:45:49;;;;;;;;;;;19.90;99.90;;;;;;5115857;28;19907;-71
2023/10/02 14:48:20;;;;;;;;;;;19.90;99.90;;;;;;5115740;28;19918;-68
2023/10/02 14:50:47;;;;;;;;;;;19.90;99.90;;;;;;5115754;27;19916;-71
2023/10/02 14:53:14;;;;;;;;;;;19.80;99.90;;;;;;5115838;28;20000;-72
2023/10/02 14:55:45;;;;;;;;;;;19.80;99.90;;;;;;5116104;27;20375;-71
2023/10/02 14:58:12;;;;;;;;;;;19.90;99.90;;;;;;5115568;28;20002;-70
2023/10/02 15:00:39;;;;;;;;;;;19.80;99.90;;;;;;5115719;28;19912;-71
2023/10/02 15:03:06;;;;;;;;;;;19.80;99.90;;;;;;5115945;28;19998;-69
2023/10/02 15:05:33;;;;;;;;;;;19.70;99.90;;;;;;5115821;28;20007;-71
2023/10/02 15:08:00;;;;;;;;;;;19.70;99.90;;;;;;5115630;28;19908;-71
2023/10/02 15:10:32;;;;;;;;;;;19.70;99.90;;;;;;5115077;28;19916;-69
2023/10/02 15:12:59;;;;;;;;;;;19.70;99.90;;;;;;5114441;28;19916;-69
2023/10/02 15:15:28;;;;;;;;;;;19.70;99.90;;;;;;5115676;28;19908;-70
2023/10/02 15:17:57;;;;;;;;;;;19.70;99.90;;;;;;5115581;28;19912;-68
2023/10/02 15:20:24;;;;;;;;;;;19.60;99.90;;;;;;5115320;28;19961;-70
2023/10/02 15:22:52;;;;;;;;;;;19.70;99.90;;;;;;5115242;28;20372;-73
2023/10/02 15:25:19;;;;;;;;;;;19.60;99.90;;;;;;5115384;28;19998;-72
2023/10/02 15:27:46;;;;;;;;;;;19.60;99.90;;;;;;5115528;28;19943;-69
2023/10/02 15:30:17;;;;;;;;;;;19.60;99.90;;;;;;5115072;28;19916;-69
2023/10/02 15:32:45;;;;;;;;;;;19.60;99.90;;;;;;5114852;28;19915;-71
2023/10/02 15:35:16;;;;;;;;;;;19.60;99.90;;;;;;5114915;27;20002;-71
2023/10/02 15:37:48;;;;;;;;;;;19.60;99.90;;;;;;5115555;28;20321;-68
2023/10/02 15:40:20;;;;;;;;;;;19.60;99.90;;;;;;5114976;28;19915;-69
2023/10/02 15:42:49;;;;;;;;;;;19.50;99.90;;;;;;5114989;28;20372;-72
2023/10/02 15:45:16;;;;;;;;;;;19.40;99.90;;;;;;5114853;28;19915;-69
2023/10/02 15:47:46;;;;;;;;;;;19.40;99.90;;;;;;5114459;28;19958;-69
2023/10/02 15:50:16;;;;;;;;;;;19.40;99.90;;;;;;5114437;28;19923;-70